Strona główna
METAR-TAF:

METAR-TAF

Lotnisko :

Port lotniczy Nîmes-Garons

Nîmes, Francja

Szerokość geograficzna: 43-45N, Długość geograficzna: 004-25E, wysokość: 94 m

Aktualna obserwacja pogody

Raport powstał 16 minut temu, godzina 12:00 UTC
Wiatr 7 kt od północ
Temperatura 22°C
Wilgotność 38%
Ciśnienie 1023 hPa
Widzialność 10 km lub więcej
Brak chmur poniżej 1500 m i brak chmur cumulonimbus

METAR: LFTW 241200Z AUTO 35007KT CAVOK 22/07 Q1023 NOSIG

czas: 13:16 (12:16 UTC)

Prognoza

Raport powstał 4 godziny i 16 minut temu, godzina 08:00 UTC
Prognoza ważna od 24 godzina 09 UTC do 25 godzina 09 UTC
Wiatr 10 kt od północno-północny zachód
Widzialność 10 km lub więcej
Brak chmur poniżej 1500 m i brak chmur cumulonimbus
Stopniowe zmiany
od 24 godzina 14 UTC do 24 godzina 16 UTC
Wiatr 8 kt od zachód

TAF: LFTW 240800Z 2409/2509 34010KT CAVOK BECMG 2414/2416 28008KT

Obserwacja i prognoza pogody dla ponad 4000 lotnisk (raport METAR i TAF).

Dostępne stacje oznaczono żółtymi i czerwonymi punktami na mapie.

Najedź kursorem aby zobaczyć nazwę stacji.

Kliknij aby zobaczyć obserwacje i prognozy pogody.

Aby zmienić mapę: kliknij na zielony przycisk z czarnym krzyżykiem, aby powiększyć; na zielony przycisk z myślnikiem, aby pomniejszyć; na zielone strzałki, aby przejść do map sąsiednich.


METAR-TAF: